Time;durP1;ratioP1;P1;durP2;ratioP2;P2;SDS_P1;SDS_P2;PMS_P1;PMS_P2;Temp;Humidity;BMP_temperature;BMP_pressure;BME280_temperature;BME280_humidity;BME280_pressure;Samples;Min_cycle;Max_cycle;Signal;HPM_P1;HPM_P2
2023/03/17 00:01:49;;;;;;;9.35;3.40;;;;;;;9.58;88.45;98913.94;5046953;28;20090;-42
2023/03/17 00:04:20;;;;;;;15.75;4.65;;;;;;;9.57;88.61;98913.16;5067755;28;20449;-43
2023/03/17 00:06:47;;;;;;;15.40;4.10;;;;;;;9.56;88.59;98916.28;5069882;28;20618;-43
2023/03/17 00:09:16;;;;;;;11.30;3.95;;;;;;;9.57;88.68;98910.38;5070033;28;20115;-42
2023/03/17 00:11:44;;;;;;;13.05;2.55;;;;;;;9.59;88.73;98912.75;5062103;28;20045;-44
2023/03/17 00:14:12;;;;;;;13.50;2.90;;;;;;;9.61;88.74;98915.94;5044039;28;20436;-42
2023/03/17 00:16:41;;;;;;;19.13;3.78;;;;;;;9.60;88.76;98911.59;5069803;28;20098;-43
2023/03/17 00:19:29;;;;;;;11.93;3.35;;;;;;;9.56;88.82;98914.31;5070329;28;20036;-43
2023/03/17 00:21:58;;;;;;;16.83;3.83;;;;;;;9.58;88.81;98919.47;5067859;28;20040;-45
2023/03/17 00:24:26;;;;;;;13.57;2.72;;;;;;;9.58;88.78;98920.22;5070087;28;20048;-47
2023/03/17 00:26:52;;;;;;;7.55;2.05;;;;;;;9.58;88.69;98908.41;5064390;28;20124;-42
2023/03/17 00:29:19;;;;;;;15.85;2.70;;;;;;;9.57;88.67;98912.34;5061246;28;20057;-43
2023/03/17 00:31:46;;;;;;;15.15;3.35;;;;;;;9.58;88.72;98914.72;5069810;28;20067;-44
2023/03/17 00:34:17;;;;;;;18.50;4.90;;;;;;;9.60;88.78;98917.09;5069776;28;20045;-43
2023/03/17 00:36:49;;;;;;;11.32;2.70;;;;;;;9.61;88.71;98915.94;5069627;28;20037;-43
2023/03/17 00:39:17;;;;;;;;;;;;;;;9.59;89.03;98915.50;5070563;28;20048;-42
2023/03/17 00:41:44;;;;;;;10.88;2.55;;;;;;;9.59;88.90;98915.50;5042790;28;19921;-44
2023/03/17 00:44:12;;;;;;;16.60;2.30;;;;;;;9.59;88.79;98915.50;5057244;28;20041;-46
2023/03/17 00:46:40;;;;;;;12.95;3.35;;;;;;;9.58;88.79;98913.94;5069749;28;20397;-43
2023/03/17 00:49:17;;;;;;;14.80;2.90;;;;;;;9.56;88.86;98917.06;5050874;28;20056;-43
2023/03/17 00:51:43;;;;;;;11.85;3.50;;;;;;;9.53;88.88;98914.31;5069626;28;20064;-42
2023/03/17 00:54:11;;;;;;;16.92;2.50;;;;;;;9.52;89.00;98919.03;5066511;28;20079;-45
2023/03/17 00:56:40;;;;;;;18.77;5.00;;;;;;;9.48;88.85;98920.16;5069036;28;20032;-43
2023/03/17 00:59:16;;;;;;;10.68;3.42;;;;;;;9.45;89.05;98929.22;5069493;28;20062;-44
2023/03/17 01:01:45;;;;;;;13.15;3.33;;;;;;;9.41;88.94;98918.13;5051682;28;20045;-43
2023/03/17 01:04:12;;;;;;;12.63;2.88;;;;;;;9.41;89.23;98925.63;5068965;28;20083;-46
2023/03/17 01:06:39;;;;;;;16.85;3.30;;;;;;;9.43;89.27;98917.75;5069501;28;20371;-44
2023/03/17 01:09:07;;;;;;;10.43;2.42;;;;;;;9.42;89.28;98916.19;5069256;28;20487;-46
2023/03/17 01:11:34;;;;;;;21.48;3.67;;;;;;;9.44;89.42;98924.88;5051547;28;20040;-42
2023/03/17 01:14:02;;;;;;;14.48;2.70;;;;;;;9.45;89.46;98932.00;5054864;28;20032;-42
2023/03/17 01:16:28;;;;;;;11.48;2.90;;;;;;;9.46;89.52;98933.56;5069618;28;20047;-42
2023/03/17 01:18:55;;;;;;;25.38;3.08;;;;;;;9.46;89.48;98931.59;5043247;28;20102;-50
2023/03/17 01:21:22;;;;;;;18.00;3.58;;;;;;;9.47;89.71;98940.69;5068941;28;20044;-44
2023/03/17 01:23:49;;;;;;;17.92;5.97;;;;;;;9.48;89.86;98925.69;5067484;28;20397;-42
2023/03/17 01:26:16;;;;;;;18.48;4.00;;;;;;;9.49;89.80;98941.88;5067701;28;20053;-43
2023/03/17 01:28:42;;;;;;;22.42;2.72;;;;;;;9.51;90.05;98935.97;5069142;28;20444;-43
2023/03/17 01:31:09;;;;;;;14.85;3.05;;;;;;;9.52;90.03;98924.56;5068971;28;20048;-43
2023/03/17 01:33:36;;;;;;;11.13;2.40;;;;;;;9.55;90.23;98920.22;5069480;28;20044;-43
2023/03/17 01:36:03;;;;;;;14.43;3.13;;;;;;;9.57;90.14;98928.91;5067324;28;20055;-44
2023/03/17 01:38:30;;;;;;;24.73;5.13;;;;;;;9.59;90.41;98915.50;5051161;28;20505;-43
2023/03/17 01:40:56;;;;;;;18.83;4.15;;;;;;;9.60;90.54;98920.66;5069703;28;20063;-46
2023/03/17 01:43:29;;;;;;;21.05;3.90;;;;;;;9.62;90.78;98923.03;5057618;28;20054;-42
2023/03/17 01:46:19;;;;;;;23.75;4.50;;;;;;;9.61;90.85;98924.22;5063784;28;20137;-49
2023/03/17 01:48:58;;;;;;;28.45;3.97;;;;;;;9.61;91.20;98924.22;5059243;28;20060;-44
2023/03/17 01:51:56;;;;;;;37.67;6.68;;;;;;;9.58;91.35;98919.47;5067136;28;20551;-43
2023/03/17 01:54:59;;;;;;;22.40;4.32;;;;;;;9.57;91.37;98920.63;5063586;28;20136;-43
2023/03/17 01:57:35;;;;;;;20.50;4.32;;;;;;;9.56;91.70;98910.75;5068278;28;20057;-44
2023/03/17 02:00:09;;;;;;;20.02;6.20;;;;;;;9.54;91.94;98902.06;5062435;28;20084;-43
2023/03/17 02:02:40;;;;;;;35.38;4.70;;;;;;;9.56;91.81;98916.28;5066136;28;20060;-43
2023/03/17 02:05:10;;;;;;;36.85;7.22;;;;;;;9.57;92.02;98904.84;5068917;28;20380;-43
2023/03/17 02:07:37;;;;;;;24.05;5.30;;;;;;;9.59;92.14;98898.94;5068841;28;20041;-44
2023/03/17 02:10:05;;;;;;;24.85;5.25;;;;;;;9.58;92.30;98903.66;5066078;28;20084;-43
2023/03/17 02:12:33;;;;;;;21.83;4.60;;;;;;;9.57;92.38;98909.59;5064906;28;20120;-43
2023/03/17 02:15:04;;;;;;;25.92;5.28;;;;;;;9.56;92.41;98905.22;5068621;28;20060;-43
2023/03/17 02:17:30;;;;;;;29.63;4.97;;;;;;;9.56;92.62;98905.22;5042612;28;20040;-43
2023/03/17 02:20:17;;;;;;;21.88;6.60;;;;;;;9.54;92.90;98897.31;5068411;28;20048;-45
2023/03/17 02:22:46;;;;;;;21.08;5.03;;;;;;;9.52;92.84;98899.69;5066209;28;20045;-42
2023/03/17 02:25:13;;;;;;;30.02;7.35;;;;;;;9.53;93.04;98894.97;5066041;28;20041;-43
2023/03/17 02:27:46;;;;;;;14.88;5.05;;;;;;;9.52;93.07;98894.16;5060653;28;20119;-43
2023/03/17 02:30:16;;;;;;;17.13;4.85;;;;;;;9.50;93.24;98893.75;5057763;28;20501;-48
2023/03/17 02:32:42;;;;;;;32.67;7.10;;;;;;;9.50;93.35;98893.75;5064132;28;20051;-43
2023/03/17 02:35:10;;;;;;;24.33;5.70;;;;;;;9.52;93.47;98893.38;5072355;28;20127;-43
2023/03/17 02:37:37;;;;;;;18.20;5.18;;;;;;;9.53;93.59;98897.72;5038461;28;20120;-46
2023/03/17 02:40:05;;;;;;;23.15;5.53;;;;;;;9.50;93.55;98895.72;5071851;28;20049;-43
2023/03/17 02:42:33;;;;;;;28.48;5.53;;;;;;;9.50;93.84;98904.00;5063728;28;20052;-47
2023/03/17 02:45:00;;;;;;;30.40;5.40;;;;;;;9.47;93.86;98897.28;5071787;28;20081;-43
2023/03/17 02:47:26;;;;;;;22.42;4.47;;;;;;;9.46;93.72;98900.41;5071374;28;20139;-49
2023/03/17 02:49:54;;;;;;;25.77;4.63;;;;;;;9.44;94.02;98891.72;5038883;28;20055;-44
2023/03/17 02:52:20;;;;;;;18.40;3.42;;;;;;;9.41;94.14;98892.47;5065829;28;20110;-48
2023/03/17 02:54:47;;;;;;;12.75;2.97;;;;;;;9.38;94.18;98882.19;5071778;28;20048;-44
2023/03/17 02:57:14;;;;;;;13.48;4.05;;;;;;;9.34;94.16;98881.38;5071650;28;20079;-43
2023/03/17 02:59:41;;;;;;;24.58;6.13;;;;;;;9.29;94.32;98878.97;5068098;28;20140;-43
2023/03/17 03:02:08;;;;;;;12.05;2.30;;;;;;;9.24;94.24;98871.81;5105921;22;20057;-46
2023/03/17 03:04:35;;;;;;;10.25;2.72;;;;;;;9.18;94.34;98874.16;5072336;28;20110;-47
2023/03/17 03:07:03;;;;;;;17.98;2.83;;;;;;;9.17;94.39;98880.84;5071850;28;20064;-43
2023/03/17 03:09:29;;;;;;;17.05;4.38;;;;;;;9.14;94.34;98873.31;5071925;28;20485;-43
2023/03/17 03:11:56;;;;;;;16.90;2.60;;;;;;;9.14;94.38;98873.31;5070767;28;20147;-47
2023/03/17 03:14:23;;;;;;;23.02;4.03;;;;;;;9.13;94.35;98879.25;5071838;28;20409;-43
2023/03/17 03:16:49;;;;;;;22.55;3.85;;;;;;;9.11;94.22;98867.75;5071442;28;20405;-43
2023/03/17 03:19:17;;;;;;;8.60;2.30;;;;;;;9.06;94.05;98876.41;5071876;28;20064;-44
2023/03/17 03:21:44;;;;;;;17.98;4.05;;;;;;;9.04;94.25;98863.00;5071281;28;20048;-43
2023/03/17 03:24:11;;;;;;;10.77;2.53;;;;;;;9.02;94.18;98870.06;5071230;28;20052;-43
2023/03/17 03:26:38;;;;;;;14.27;3.75;;;;;;;8.98;94.15;98866.47;5070877;28;20498;-43
2023/03/17 03:29:05;;;;;;;20.20;3.72;;;;;;;8.96;94.13;98863.28;5071536;28;20036;-43
2023/03/17 03:31:32;;;;;;;14.20;3.67;;;;;;;8.93;94.08;98867.59;5071215;28;20055;-43
2023/03/17 03:33:59;;;;;;;16.35;2.53;;;;;;;8.89;94.06;98866.00;5071332;28;20044;-43
2023/03/17 03:36:26;;;;;;;11.90;2.72;;;;;;;8.84;93.91;98853.31;5071026;28;20037;-45
2023/03/17 03:38:53;;;;;;;13.98;3.28;;;;;;;8.83;93.95;98857.25;5071330;28;20421;-43
2023/03/17 03:41:20;;;;;;;10.93;3.72;;;;;;;8.81;94.13;98850.53;5071095;28;20051;-43
2023/03/17 03:43:46;;;;;;;13.32;3.45;;;;;;;8.79;94.04;98852.88;5069438;28;20521;-43
2023/03/17 03:46:14;;;;;;;10.90;2.75;;;;;;;8.79;94.07;98861.94;5071906;28;20402;-47
2023/03/17 03:48:41;;;;;;;15.77;2.97;;;;;;;8.77;94.08;98860.72;5071123;28;20049;-43
2023/03/17 03:51:07;;;;;;;17.98;2.97;;;;;;;8.78;93.99;98860.38;5070678;28;20048;-47
2023/03/17 03:53:34;;;;;;;10.65;2.10;;;;;;;8.78;94.12;98859.56;5070988;28;20044;-44
2023/03/17 03:56:01;;;;;;;13.02;3.85;;;;;;;8.79;94.09;98867.47;5070656;28;20398;-43
2023/03/17 03:58:28;;;;;;;13.52;2.20;;;;;;;8.79;94.12;98856.41;5070342;28;20045;-44
2023/03/17 04:00:55;;;;;;;15.48;2.97;;;;;;;8.81;94.15;98858.81;5070641;28;20079;-43
2023/03/17 04:03:22;;;;;;;20.40;2.75;;;;;;;8.82;94.16;98872.22;5070673;28;20044;-43
2023/03/17 04:05:49;;;;;;;15.73;4.25;;;;;;;8.79;94.21;98864.69;5070610;28;20055;-43
2023/03/17 04:08:16;;;;;;;16.65;4.63;;;;;;;8.80;94.24;98863.53;5070445;28;20051;-49
2023/03/17 04:10:43;;;;;;;18.13;3.63;;;;;;;8.82;94.25;98872.22;5068386;28;20044;-43
2023/03/17 04:13:10;;;;;;;22.55;4.18;;;;;;;8.81;94.19;98876.19;5070649;28;20049;-43
2023/03/17 04:15:36;;;;;;;22.13;4.35;;;;;;;8.79;94.24;98875.72;5069936;28;20059;-46
2023/03/17 04:18:04;;;;;;;19.17;4.10;;;;;;;8.75;94.42;98871.34;5070661;28;20143;-43
2023/03/17 04:20:30;;;;;;;16.65;3.60;;;;;;;8.74;94.62;98870.56;5069676;28;20033;-43
2023/03/17 04:22:58;;;;;;;16.55;2.70;;;;;;;8.73;94.73;98871.75;5069815;28;20049;-43
2023/03/17 04:25:25;;;;;;;18.52;5.68;;;;;;;8.73;94.91;98874.50;5069726;28;20039;-43
2023/03/17 04:27:51;;;;;;;20.58;3.42;;;;;;;8.74;94.98;98862.28;5070169;28;20402;-43
2023/03/17 04:30:18;;;;;;;20.08;3.17;;;;;;;8.72;94.78;98872.91;5068199;28;20040;-43
2023/03/17 04:32:45;;;;;;;14.65;3.50;;;;;;;8.70;94.88;98853.19;5070473;28;20056;-43
2023/03/17 04:35:15;;;;;;;20.33;3.72;;;;;;;8.68;95.00;98855.53;5069801;28;20068;-44
2023/03/17 04:37:42;;;;;;;23.80;4.63;;;;;;;8.66;95.04;98857.88;5070094;28;20102;-43
2023/03/17 04:40:10;;;;;;;17.85;3.45;;;;;;;8.64;95.20;98857.47;5068933;28;20067;-43
2023/03/17 04:42:37;;;;;;;33.10;7.70;;;;;;;8.62;95.51;98865.31;5070029;28;20048;-43
2023/03/17 04:45:05;;;;;;;32.80;6.60;;;;;;;8.64;95.60;98867.69;5069805;28;20493;-43
2023/03/17 04:47:32;;;;;;;33.55;5.25;;;;;;;8.65;95.96;98859.06;5069489;28;20044;-44
2023/03/17 04:49:59;;;;;;;26.73;7.20;;;;;;;8.68;95.95;98858.31;5068243;28;20398;-45
2023/03/17 04:52:26;;;;;;;24.17;5.82;;;;;;;8.72;95.94;98858.31;5069154;28;20402;-45
2023/03/17 04:54:53;;;;;;;27.88;5.97;;;;;;;8.72;96.03;98861.88;5069632;28;20044;-44
2023/03/17 04:57:19;;;;;;;27.00;5.90;;;;;;;8.71;96.28;98854.75;5069613;28;20045;-43
2023/03/17 04:59:46;;;;;;;20.58;5.30;;;;;;;8.73;96.50;98852.44;5068369;28;20386;-43
2023/03/17 05:02:13;;;;;;;45.25;9.60;;;;;;;8.73;96.55;98857.97;5069443;28;20048;-44
2023/03/17 05:04:39;;;;;;;34.83;6.13;;;;;;;8.77;96.80;98863.50;5069513;28;20486;-43
2023/03/17 05:07:06;;;;;;;40.22;7.32;;;;;;;8.77;96.87;98867.06;5069393;28;20044;-43
2023/03/17 05:09:33;;;;;;;27.95;5.57;;;;;;;8.78;97.17;98860.38;5068626;28;20414;-43
2023/03/17 05:11:59;;;;;;;32.72;5.80;;;;;;;8.82;97.26;98861.19;5051443;28;20033;-43
2023/03/17 05:14:26;;;;;;;25.48;6.38;;;;;;;8.85;97.18;98865.16;5069731;28;20123;-43
2023/03/17 05:16:53;;;;;;;28.42;5.38;;;;;;;8.84;97.28;98858.06;5051440;28;20056;-43
2023/03/17 05:19:19;;;;;;;40.78;7.57;;;;;;;8.85;97.47;98859.63;5068359;28;20440;-43
2023/03/17 05:21:47;;;;;;;35.42;6.80;;;;;;;8.85;97.59;98854.91;5069000;28;20052;-46
2023/03/17 05:24:13;;;;;;;35.28;6.15;;;;;;;8.87;97.80;98863.59;5069037;28;20043;-43
2023/03/17 05:26:40;;;;;;;38.60;6.80;;;;;;;8.89;98.02;98861.28;5069241;28;20045;-44
2023/03/17 05:29:07;;;;;;;27.45;5.32;;;;;;;8.89;98.20;98864.03;5068532;28;20049;-46
2023/03/17 05:31:35;;;;;;;35.13;6.82;;;;;;;8.90;98.10;98865.59;5068807;28;20044;-43
2023/03/17 05:34:02;;;;;;;29.77;5.75;;;;;;;8.90;98.28;98862.84;5069006;28;20128;-43
2023/03/17 05:36:28;;;;;;;37.40;6.97;;;;;;;8.92;98.58;98865.25;5068952;28;20044;-44
2023/03/17 05:38:55;;;;;;;31.65;5.93;;;;;;;8.91;98.58;98869.97;5069214;28;20191;-50
2023/03/17 05:41:22;;;;;;;40.65;6.45;;;;;;;8.90;98.71;98867.56;5068654;28;20041;-43
2023/03/17 05:43:49;;;;;;;38.95;8.43;;;;;;;8.88;98.65;98870.72;5069105;28;20055;-43
2023/03/17 05:46:15;;;;;;;49.10;8.75;;;;;;;8.87;98.78;98874.63;5051268;28;20063;-43
2023/03/17 05:48:45;;;;;;;48.65;9.60;;;;;;;8.85;99.07;98860.44;5069259;28;20135;-43
2023/03/17 05:51:12;;;;;;;37.78;7.80;;;;;;;8.86;99.05;98867.56;5067633;28;20040;-43
2023/03/17 05:53:39;;;;;;;40.85;6.93;;;;;;;8.85;99.35;98868.72;5068846;28;20463;-45
2023/03/17 05:56:06;;;;;;;44.65;7.05;;;;;;;8.86;99.62;98872.28;5069286;28;20082;-44
2023/03/17 05:58:33;;;;;;;51.97;6.93;;;;;;;8.85;99.78;98871.47;5069035;28;20051;-43
2023/03/17 06:01:00;;;;;;;33.75;7.05;;;;;;;8.81;99.76;98870.66;5067468;28;20502;-43
2023/03/17 06:03:27;;;;;;;45.00;7.15;;;;;;;8.81;99.91;98867.91;5072560;28;20071;-43
2023/03/17 06:05:54;;;;;;;47.08;8.32;;;;;;;8.78;100.00;98860.38;5073384;28;20055;-43
2023/03/17 06:08:20;;;;;;;50.72;8.27;;;;;;;8.77;100.00;98869.00;5072708;28;20072;-45
2023/03/17 06:10:47;;;;;;;37.97;6.70;;;;;;;8.74;100.00;98867.81;5072243;28;20052;-43
2023/03/17 06:13:14;;;;;;;43.28;7.93;;;;;;;8.75;100.00;98863.09;5073100;28;20051;-44
2023/03/17 06:15:41;;;;;;;32.60;6.38;;;;;;;8.75;100.00;98868.59;5072670;28;20072;-43
2023/03/17 06:18:08;;;;;;;36.92;8.27;;;;;;;8.75;100.00;98866.66;5055354;28;20048;-43
2023/03/17 06:20:35;;;;;;;55.00;7.45;;;;;;;8.77;100.00;98861.53;5072226;28;20418;-43
2023/03/17 06:23:02;;;;;;;32.10;5.53;;;;;;;8.78;100.00;98859.56;5072433;28;20044;-44
2023/03/17 06:25:33;;;;;;;33.72;5.10;;;;;;;8.77;100.00;98867.06;5072682;28;20062;-43
2023/03/17 06:28:02;;;;;;;38.03;6.00;;;;;;;8.77;100.00;98864.28;5072611;28;20057;-43
2023/03/17 06:30:33;;;;;;;37.38;6.47;;;;;;;8.77;100.00;98866.25;5070259;28;20079;-43
2023/03/17 06:33:01;;;;;;;26.25;5.18;;;;;;;8.78;100.00;98865.88;5072138;28;20098;-43
2023/03/17 06:35:29;;;;;;;30.88;5.15;;;;;;;8.80;100.00;98863.53;5071903;28;20037;-43
2023/03/17 06:37:56;;;;;;;32.45;6.45;;;;;;;8.79;100.00;98859.19;5072526;28;20563;-47
2023/03/17 06:40:23;;;;;;;37.17;5.93;;;;;;;8.83;100.00;98873.03;5071343;28;20043;-43
2023/03/17 06:42:50;;;;;;;29.80;4.95;;;;;;;8.83;100.00;98867.50;5072019;28;20044;-43
2023/03/17 06:45:17;;;;;;;33.45;5.13;;;;;;;8.84;100.00;98869.88;5069223;28;20056;-43
2023/03/17 06:47:43;;;;;;;26.10;5.60;;;;;;;8.87;100.00;98874.63;5072188;28;20059;-43
2023/03/17 06:50:11;;;;;;;34.20;6.82;;;;;;;8.90;100.00;98881.38;5070970;28;20040;-43
2023/03/17 06:52:38;;;;;;;34.85;5.07;;;;;;;8.92;100.00;98879.81;5068012;28;20048;-47
2023/03/17 06:55:07;;;;;;;34.47;5.90;;;;;;;8.95;100.00;98876.28;5054293;28;20052;-43
2023/03/17 06:57:34;;;;;;;33.85;5.13;;;;;;;8.97;100.00;98873.97;5053124;28;20052;-43
2023/03/17 07:00:01;;;;;;;34.20;7.82;;;;;;;8.99;100.00;98879.91;5070903;28;20060;-43
2023/03/17 07:02:32;;;;;;;37.72;4.50;;;;;;;9.00;100.00;98881.47;5071471;28;20041;-43
2023/03/17 07:04:59;;;;;;;28.00;5.00;;;;;;;9.03;100.00;98883.47;5071587;28;20072;-43
2023/03/17 07:07:27;;;;;;;22.50;5.20;;;;;;;9.05;100.00;98878.34;5071456;28;20117;-49
2023/03/17 07:09:53;;;;;;;28.63;5.13;;;;;;;9.06;100.00;98879.97;5071143;28;20040;-43
2023/03/17 07:12:20;;;;;;;25.40;5.03;;;;;;;9.11;100.00;98873.28;5071040;28;20102;-43
2023/03/17 07:14:47;;;;;;;35.53;6.38;;;;;;;9.12;100.00;98870.16;5071521;28;20377;-43
2023/03/17 07:17:14;;;;;;;22.88;5.35;;;;;;;9.14;100.00;98878.84;5044349;28;20537;-43
2023/03/17 07:19:41;;;;;;;30.05;5.82;;;;;;;9.13;100.00;98877.25;5070992;28;20513;-46
2023/03/17 07:22:11;;;;;;;39.15;7.80;;;;;;;9.12;100.00;98886.72;5070771;28;20490;-45
2023/03/17 07:24:40;;;;;;;30.05;5.03;;;;;;;9.12;100.00;98886.72;5071546;28;20135;-48
2023/03/17 07:27:07;;;;;;;38.75;7.80;;;;;;;9.11;100.00;98879.59;5058090;28;20072;-43
2023/03/17 07:29:34;;;;;;;31.05;5.00;;;;;;;9.13;100.00;98888.28;5071194;28;20474;-44
2023/03/17 07:32:01;;;;;;;28.38;5.20;;;;;;;9.16;100.00;98893.06;5052599;28;20055;-43
2023/03/17 07:34:28;;;;;;;34.40;5.40;;;;;;;9.22;100.00;98896.25;5071233;28;20037;-44
2023/03/17 07:36:54;;;;;;;39.03;5.47;;;;;;;9.31;100.00;98894.00;5071853;28;20052;-43
2023/03/17 07:39:21;;;;;;;27.02;5.25;;;;;;;9.36;100.00;98890.06;5069662;28;20486;-43
2023/03/17 07:41:53;;;;;;;31.85;5.57;;;;;;;9.43;100.00;98901.97;5069418;28;20143;-43
2023/03/17 07:44:22;;;;;;;31.52;8.57;;;;;;;9.55;100.00;98903.66;5070956;28;20039;-43
2023/03/17 07:46:50;;;;;;;33.17;7.25;;;;;;;9.63;100.00;98894.25;5070807;28;20045;-43
2023/03/17 07:49:17;;;;;;;36.15;7.35;;;;;;;9.68;100.00;98893.88;5070174;28;20094;-43
2023/03/17 07:51:59;;;;;;;40.00;5.88;;;;;;;9.71;100.00;98901.41;5069978;28;20044;-43
2023/03/17 07:54:27;;;;;;;46.50;8.00;;;;;;;9.77;100.00;98897.09;5069902;28;20113;-47
2023/03/17 07:56:55;;;;;;;37.80;5.70;;;;;;;9.85;100.00;98901.47;5070933;28;20048;-43
2023/03/17 07:59:22;;;;;;;30.05;5.65;;;;;;;9.97;100.00;98901.19;5070883;28;20041;-43
2023/03/17 08:01:49;;;;;;;39.63;6.72;;;;;;;10.07;100.00;98905.97;5069089;28;20135;-44
2023/03/17 08:04:16;;;;;;;30.38;5.97;;;;;;;10.20;100.00;98914.75;5070183;28;20044;-43
2023/03/17 08:06:42;;;;;;;61.55;7.57;;;;;;;10.29;100.00;98910.47;5070568;28;20047;-45
2023/03/17 08:09:10;;;;;;;33.88;6.10;;;;;;;10.37;100.00;98909.34;5070228;28;20508;-43
2023/03/17 08:11:36;;;;;;;46.30;6.43;;;;;;;10.43;100.00;98908.97;5068711;28;20047;-48
2023/03/17 08:14:04;;;;;;;37.38;6.82;;;;;;;10.48;100.00;98911.34;5065317;28;20394;-49
2023/03/17 08:16:31;;;;;;;34.13;6.15;;;;;;;10.44;100.00;98910.53;5070253;28;20052;-43
2023/03/17 08:18:57;;;;;;;34.60;5.97;;;;;;;10.43;100.00;98915.28;5070083;28;20401;-46
2023/03/17 08:21:25;;;;;;;28.02;4.85;;;;;;;10.40;100.00;98911.31;5069557;28;20049;-43
2023/03/17 08:23:53;;;;;;;37.10;5.60;;;;;;;10.43;100.00;98912.53;5069838;28;20076;-43
2023/03/17 08:26:20;;;;;;;41.67;7.18;;;;;;;10.51;100.00;98921.66;5063637;28;20394;-45
2023/03/17 08:28:49;;;;;;;38.90;5.03;;;;;;;10.52;100.00;98907.41;5052218;28;20403;-45
2023/03/17 08:31:18;;;;;;;31.85;5.68;;;;;;;10.50;100.00;98915.31;5068822;28;20036;-43
2023/03/17 08:33:48;;;;;;;33.28;6.63;;;;;;;10.51;100.00;98916.88;5039435;28;20072;-45
2023/03/17 08:36:16;;;;;;;31.92;6.28;;;;;;;10.60;100.00;98913.75;5069747;28;20557;-44
2023/03/17 08:38:44;;;;;;;45.03;8.48;;;;;;;10.71;100.00;98918.16;5069578;28;20047;-43
2023/03/17 08:41:15;;;;;;;27.52;6.00;;;;;;;10.88;100.00;98914.66;5069034;28;20498;-45
2023/03/17 08:43:43;;;;;;;28.75;5.32;;;;;;;11.00;100.00;98928.13;5069044;28;20086;-44
2023/03/17 08:46:15;;;;;;;39.83;6.47;;;;;;;11.12;100.00;98928.97;5069441;28;20051;-46
2023/03/17 08:48:45;;;;;;;45.20;8.27;;;;;;;11.16;100.00;98927.78;5069680;28;20044;-43
2023/03/17 08:51:13;;;;;;;44.17;6.50;;;;;;;11.19;100.00;98929.75;5068585;28;20579;-47
2023/03/17 08:53:43;;;;;;;36.80;7.13;;;;;;;11.25;100.00;98928.16;5051523;28;20114;-47
2023/03/17 08:56:10;;;;;;;31.10;7.10;;;;;;;11.29;100.00;98926.22;5069347;28;20482;-43
2023/03/17 08:58:41;;;;;;;41.75;9.10;;;;;;;11.26;100.00;98924.22;5069173;28;20044;-44
2023/03/17 09:01:09;;;;;;;40.05;8.00;;;;;;;11.20;100.00;98920.25;5068182;28;21024;-43
2023/03/17 09:03:38;;;;;;;45.13;7.90;;;;;;;11.19;100.00;98912.34;5068978;28;20143;-47
2023/03/17 09:06:06;;;;;;;38.88;7.65;;;;;;;11.18;100.00;98922.63;5056389;28;20044;-43
2023/03/17 09:08:34;;;;;;;43.60;10.43;;;;;;;11.14;100.00;98927.38;5069579;28;20040;-43
2023/03/17 09:11:04;;;;;;;31.33;6.75;;;;;;;11.13;100.00;98922.22;5068778;28;20041;-43
2023/03/17 09:13:36;;;;;;;47.13;9.48;;;;;;;11.07;100.00;98919.03;5069213;28;20056;-44
2023/03/17 09:16:02;;;;;;;39.25;6.68;;;;;;;11.02;100.00;98924.97;5070131;28;20562;-43
2023/03/17 09:18:30;;;;;;;49.90;11.65;;;;;;;10.97;100.00;98926.16;5051285;28;20389;-44
2023/03/17 09:20:56;;;;;;;27.10;6.93;;;;;;;10.93;100.00;98927.34;5069674;28;20052;-45
2023/03/17 09:23:24;;;;;;;26.88;7.25;;;;;;;10.94;100.00;98926.94;5064221;28;20066;-43
2023/03/17 09:25:52;;;;;;;55.10;7.10;;;;;;;10.93;100.00;98922.56;5068573;28;20106;-43
2023/03/17 09:28:19;;;;;;;38.50;8.85;;;;;;;10.92;100.00;98922.97;5068841;28;20106;-45
2023/03/17 09:30:46;;;;;;;48.38;9.73;;;;;;;10.86;100.00;98914.25;5068577;28;20048;-44
2023/03/17 09:33:14;;;;;;;33.58;7.03;;;;;;;10.81;100.00;98934.00;5066975;28;20125;-48
2023/03/17 09:35:41;;;;;;;48.80;8.68;;;;;;;10.78;100.00;98922.91;5067496;28;20102;-43
2023/03/17 09:38:08;;;;;;;44.42;7.65;;;;;;;10.80;100.00;98915.03;5068931;28;20055;-44
2023/03/17 09:40:43;;;;;;;44.05;8.68;;;;;;;10.84;100.00;98929.66;5068992;28;20725;-43
2023/03/17 09:43:34;;;;;;;48.63;10.45;;;;;;;10.85;100.00;98925.72;5067414;28;20040;-43
2023/03/17 09:46:18;;;;;;;54.42;10.38;;;;;;;10.85;100.00;98923.75;5068931;28;20550;-44
2023/03/17 09:49:06;;;;;;;39.45;10.20;;;;;;;10.82;100.00;98932.03;5072382;28;20056;-44
2023/03/17 09:51:34;;;;;;;45.20;8.48;;;;;;;10.74;100.00;98935.97;5051273;28;20044;-43
2023/03/17 09:54:10;;;;;;;42.92;10.13;;;;;;;10.65;100.00;98935.53;5067995;28;20048;-46
2023/03/17 09:56:40;;;;;;;46.42;8.88;;;;;;;10.59;100.00;98950.94;5067517;28;20036;-45
2023/03/17 09:59:47;;;;;;;47.03;8.80;;;;;;;10.58;100.00;98943.81;5068682;28;20036;-44
2023/03/17 10:02:36;;;;;;;43.97;7.60;;;;;;;10.63;100.00;98935.13;5059432;28;20057;-43
2023/03/17 10:05:12;;;;;;;31.63;5.22;;;;;;;10.68;100.00;98943.06;5049097;28;20079;-44
2023/03/17 10:07:49;;;;;;;32.80;7.88;;;;;;;10.72;100.00;98952.19;5066663;28;20410;-43
2023/03/17 10:10:23;;;;;;;33.90;6.90;;;;;;;10.73;100.00;98949.00;5068406;28;20083;-43
2023/03/17 10:13:14;;;;;;;28.10;5.63;;;;;;;10.74;100.00;98950.59;5069135;28;20044;-46
2023/03/17 10:15:46;;;;;;;38.42;6.13;;;;;;;10.77;100.00;98957.34;5068806;28;20450;-44
2023/03/17 10:18:15;;;;;;;;;;;;;;;10.77;100.00;98951.81;5058802;28;20051;-44
2023/03/17 10:20:53;;;;;;;27.77;5.55;;;;;;;10.79;100.00;98961.28;5050184;28;19967;-44
2023/03/17 10:23:34;;;;;;;28.83;6.25;;;;;;;10.82;100.00;98954.19;5060028;28;20069;-43
2023/03/17 10:26:18;;;;;;;34.47;6.72;;;;;;;10.81;100.00;98958.91;5060356;28;20434;-43
2023/03/17 10:28:44;;;;;;;29.27;6.57;;;;;;;10.83;100.00;98950.22;5060484;28;20069;-43
2023/03/17 10:31:27;;;;;;;30.27;6.20;;;;;;;10.86;100.00;98954.97;5061261;28;20048;-43
2023/03/17 10:33:57;;;;;;;22.23;4.65;;;;;;;10.90;100.00;98956.59;5058105;28;20063;-44
2023/03/17 10:36:38;;;;;;;37.35;6.40;;;;;;;10.94;100.00;98956.59;5065610;28;20041;-46
2023/03/17 10:39:07;;;;;;;35.72;8.20;;;;;;;10.92;100.00;98959.75;5064702;28;20053;-43
2023/03/17 10:41:37;;;;;;;35.42;5.50;;;;;;;10.91;100.00;98968.44;5062207;28;20043;-43
2023/03/17 10:44:19;;;;;;;27.50;5.82;;;;;;;10.86;100.00;98960.50;5060301;28;20037;-42
2023/03/17 10:46:54;;;;;;;27.13;5.25;;;;;;;10.81;100.00;98963.66;5062520;28;20048;-43
2023/03/17 10:49:23;;;;;;;36.58;7.90;;;;;;;10.74;100.00;98952.56;5064317;28;20128;-43
2023/03/17 10:51:52;;;;;;;34.70;6.53;;;;;;;10.68;100.00;98959.66;5066773;28;20091;-43
2023/03/17 10:54:22;;;;;;;37.67;6.95;;;;;;;10.65;100.00;98968.72;5062950;28;20444;-42
2023/03/17 10:57:00;;;;;;;35.75;7.22;;;;;;;10.59;100.00;98967.53;5068592;28;20139;-43
2023/03/17 10:59:30;;;;;;;35.03;5.88;;;;;;;10.55;100.00;98966.72;5064192;28;20126;-46
2023/03/17 11:02:17;;;;;;;32.58;8.00;;;;;;;10.51;100.00;98977.75;5063181;28;20083;-44
2023/03/17 11:04:43;;;;;;;28.40;6.10;;;;;;;10.46;100.00;98975.34;5066911;28;20045;-43
2023/03/17 11:07:33;;;;;;;41.33;8.23;;;;;;;10.42;100.00;98977.31;5065359;28;20057;-43
2023/03/17 11:10:04;;;;;;;28.88;8.35;;;;;;;10.39;100.00;98975.34;5060866;28;20056;-43
2023/03/17 11:12:38;;;;;;;34.03;8.23;;;;;;;10.37;100.00;98972.97;5059541;28;20056;-43
2023/03/17 11:15:12;;;;;;;23.77;6.63;;;;;;;10.34;100.00;98967.41;5065528;28;20486;-50
2023/03/17 11:17:40;;;;;;;29.80;6.40;;;;;;;10.35;100.00;98975.31;5064138;28;21776;-44
2023/03/17 11:20:30;;;;;;;24.98;5.90;;;;;;;10.39;100.00;98965.06;5052637;28;20140;-45
2023/03/17 11:23:14;;;;;;;32.33;5.25;;;;;;;10.42;100.00;98973.75;5058218;28;20040;-44
2023/03/17 11:25:45;;;;;;;31.02;6.82;;;;;;;10.45;100.00;98973.00;5062859;28;20068;-44
2023/03/17 11:28:26;;;;;;;43.35;8.73;;;;;;;10.44;100.00;98969.44;5064362;28;20593;-46
2023/03/17 11:31:08;;;;;;;40.85;7.43;;;;;;;10.45;100.00;98978.53;5052144;28;20047;-43
2023/03/17 11:33:47;;;;;;;32.97;6.90;;;;;;;10.46;100.00;98975.34;5066969;28;20098;-43
2023/03/17 11:36:52;;;;;;;34.83;7.00;;;;;;;10.49;100.00;98979.31;5068809;28;20063;-43
2023/03/17 11:39:26;;;;;;;41.67;6.30;;;;;;;10.49;100.00;98973.78;5062590;28;20413;-43